Time;durP1;ratioP1;P1;durP2;ratioP2;P2;SDS_P1;SDS_P2;PMS_P1;PMS_P2;Temp;Humidity;BMP_temperature;BMP_pressure;BME280_temperature;BME280_humidity;BME280_pressure;Samples;Min_cycle;Max_cycle;Signal;HPM_P1;HPM_P2
2021/07/09 00:01:41;;;;;;;13.48;10.10;;;;;;;;;;4978687;28;20192;-73
2021/07/09 00:04:06;;;;;;;14.45;10.18;;;;;;;;;;4991950;28;20701;-71
2021/07/09 00:06:32;;;;;;;10.52;9.02;;;;;;;;;;4983052;28;20172;-70
2021/07/09 00:08:57;;;;;;;15.15;10.32;;;;;;;;;;4985559;28;20208;-71
2021/07/09 00:11:22;;;;;;;12.30;9.95;;;;;;;;;;4974959;28;20177;-73
2021/07/09 00:13:48;;;;;;;13.80;9.90;;;;;;;;;;4983011;28;20212;-71
2021/07/09 00:16:14;;;;;;;13.63;10.13;;;;;;;;;;4986107;28;20177;-71
2021/07/09 00:18:39;;;;;;;15.85;11.50;;;;;;;;;;4970536;28;20188;-71
2021/07/09 00:21:04;;;;;;;12.27;10.70;;;;;;;;;;4978956;28;20441;-71
2021/07/09 00:23:30;;;;;;;14.48;11.30;;;;;;;;;;4986940;28;20298;-71
2021/07/09 00:25:55;;;;;;;17.80;11.70;;;;;;;;;;4976688;28;20653;-71
2021/07/09 00:28:20;;;;;;;14.88;10.18;;;;;;;;;;4985145;28;20191;-71
2021/07/09 00:30:45;;;;;;;18.30;10.95;;;;;;;;;;4981287;28;20180;-71
2021/07/09 00:33:11;;;;;;;16.45;11.15;;;;;;;;;;4979237;28;20588;-71
2021/07/09 00:35:36;;;;;;;15.45;10.93;;;;;;;;;;4982418;28;20262;-71
2021/07/09 00:38:01;;;;;;;14.43;10.60;;;;;;;;;;4979891;28;20184;-71
2021/07/09 00:40:26;;;;;;;15.80;11.10;;;;;;;;;;4976634;28;20294;-71
2021/07/09 00:42:52;;;;;;;15.93;12.27;;;;;;;;;;4990589;28;20204;-71
2021/07/09 00:45:17;;;;;;;16.42;10.68;;;;;;;;;;4979186;28;20661;-71
2021/07/09 00:47:43;;;;;;;17.02;10.50;;;;;;;;;;4988895;28;20183;-70
2021/07/09 00:50:09;;;;;;;14.93;10.98;;;;;;;;;;4983238;28;20729;-71
2021/07/09 00:52:34;;;;;;;15.60;9.93;;;;;;;;;;4987673;28;20279;-71
2021/07/09 00:54:59;;;;;;;16.73;11.40;;;;;;;;;;4981180;28;20270;-70
2021/07/09 00:57:26;;;;;;;14.30;11.10;;;;;;;;;;4973354;28;20926;-72
2021/07/09 00:59:52;;;;;;;14.35;10.68;;;;;;;;;;4979177;28;20259;-72
2021/07/09 01:02:17;;;;;;;11.93;9.32;;;;;;;;;;4985399;28;20712;-72
2021/07/09 01:04:43;;;;;;;11.07;9.05;;;;;;;;;;4960311;28;20239;-73
2021/07/09 01:07:08;;;;;;;13.70;10.77;;;;;;;;;;4977684;28;20176;-72
2021/07/09 01:09:33;;;;;;;13.20;10.32;;;;;;;;;;4984770;28;20426;-73
2021/07/09 01:12:00;;;;;;;15.48;11.45;;;;;;;;;;4978564;28;20195;-70
2021/07/09 01:14:25;;;;;;;16.60;11.30;;;;;;;;;;4970358;28;20199;-74
2021/07/09 01:16:50;;;;;;;14.48;10.05;;;;;;;;;;4972971;28;20264;-74
2021/07/09 01:19:20;;;;;;;16.52;10.65;;;;;;;;;;4976153;28;20704;-73
2021/07/09 01:21:46;;;;;;;15.80;11.48;;;;;;;;;;4971959;28;20180;-72
2021/07/09 01:24:11;;;;;;;15.02;10.50;;;;;;;;;;4970095;28;20195;-74
2021/07/09 01:26:40;;;;;;;17.58;10.93;;;;;;;;;;4977388;28;20184;-73
2021/07/09 01:29:06;;;;;;;15.68;9.98;;;;;;;;;;4971980;28;20188;-74
2021/07/09 01:31:31;;;;;;;14.20;9.85;;;;;;;;;;4975067;28;20679;-74
2021/07/09 01:33:56;;;;;;;13.27;10.38;;;;;;;;;;4976916;28;20716;-74
2021/07/09 01:36:22;;;;;;;14.68;10.57;;;;;;;;;;4960391;28;20190;-74
2021/07/09 01:38:47;;;;;;;15.32;11.07;;;;;;;;;;4977301;28;20233;-74
2021/07/09 01:41:13;;;;;;;14.13;9.23;;;;;;;;;;4971890;28;20278;-74
2021/07/09 01:43:38;;;;;;;14.52;10.82;;;;;;;;;;4971670;28;20277;-74
2021/07/09 01:46:03;;;;;;;17.42;9.68;;;;;;;;;;4971785;28;20184;-74
2021/07/09 01:48:28;;;;;;;14.02;10.52;;;;;;;;;;4974902;28;20214;-74
2021/07/09 01:50:54;;;;;;;14.25;10.40;;;;;;;;;;4971474;28;20747;-73
2021/07/09 01:53:19;;;;;;;18.35;12.05;;;;;;;;;;4968179;28;20204;-72
2021/07/09 01:55:44;;;;;;;19.25;14.15;;;;;;;;;;4972417;28;20215;-72
2021/07/09 01:58:09;;;;;;;21.05;13.27;;;;;;;;;;4971908;28;21556;-72
2021/07/09 02:00:35;;;;;;;22.92;15.40;;;;;;;;;;4972945;28;20199;-73
2021/07/09 02:03:00;;;;;;;21.98;14.27;;;;;;;;;;4970532;28;20219;-72
2021/07/09 02:05:25;;;;;;;22.27;15.23;;;;;;;;;;4971222;28;20187;-72
2021/07/09 02:07:54;;;;;;;22.00;14.35;;;;;;;;;;4973461;28;20198;-72
2021/07/09 02:10:20;;;;;;;20.77;14.27;;;;;;;;;;4970486;28;20186;-73
2021/07/09 02:12:45;;;;;;;24.15;15.80;;;;;;;;;;4950069;28;20238;-73
2021/07/09 02:15:13;;;;;;;19.42;14.68;;;;;;;;;;4969500;28;20620;-72
2021/07/09 02:17:38;;;;;;;22.17;14.52;;;;;;;;;;4956220;28;20195;-73
2021/07/09 02:20:05;;;;;;;23.10;15.77;;;;;;;;;;4970234;28;20183;-73
2021/07/09 02:22:30;;;;;;;26.50;14.68;;;;;;;;;;4972611;28;20664;-73
2021/07/09 02:24:56;;;;;;;20.30;13.98;;;;;;;;;;4969901;28;20180;-73
2021/07/09 02:27:21;;;;;;;29.73;16.02;;;;;;;;;;4957220;28;20187;-74
2021/07/09 02:29:46;;;;;;;23.52;15.07;;;;;;;;;;4969160;28;20187;-73
2021/07/09 02:32:12;;;;;;;26.38;16.23;;;;;;;;;;4972931;28;20594;-73
2021/07/09 02:34:38;;;;;;;24.70;15.55;;;;;;;;;;4962428;28;20183;-73
2021/07/09 02:37:04;;;;;;;27.08;15.95;;;;;;;;;;4972437;28;20215;-73
2021/07/09 02:39:29;;;;;;;27.48;17.00;;;;;;;;;;4973942;28;20703;-73
2021/07/09 02:41:55;;;;;;;23.23;15.18;;;;;;;;;;4972252;28;20210;-73
2021/07/09 02:44:24;;;;;;;21.90;15.10;;;;;;;;;;4972147;28;20293;-73
2021/07/09 02:46:50;;;;;;;21.95;14.93;;;;;;;;;;4970065;28;20192;-72
2021/07/09 02:49:15;;;;;;;26.60;16.52;;;;;;;;;;4952578;28;20799;-72
2021/07/09 02:51:40;;;;;;;23.90;13.20;;;;;;;;;;4970240;28;20184;-73
2021/07/09 02:54:06;;;;;;;20.17;12.88;;;;;;;;;;4973773;28;20219;-73
2021/07/09 02:56:31;;;;;;;22.48;15.07;;;;;;;;;;4955993;28;20684;-73
2021/07/09 02:58:58;;;;;;;20.27;12.73;;;;;;;;;;4956428;28;20192;-73
2021/07/09 03:01:23;;;;;;;19.83;12.80;;;;;;;;;;4967695;28;20278;-72
2021/07/09 03:03:48;;;;;;;22.50;14.07;;;;;;;;;;4972013;28;20234;-73
2021/07/09 03:06:13;;;;;;;20.40;13.43;;;;;;;;;;4970971;28;20184;-73
2021/07/09 03:08:39;;;;;;;18.08;12.15;;;;;;;;;;4971909;28;20183;-72
2021/07/09 03:11:04;;;;;;;20.30;12.23;;;;;;;;;;4968585;28;20181;-73
2021/07/09 03:13:29;;;;;;;19.75;11.65;;;;;;;;;;4969606;28;21072;-72
2021/07/09 03:15:54;;;;;;;17.88;11.77;;;;;;;;;;4974475;28;20291;-71
2021/07/09 03:18:19;;;;;;;21.48;12.98;;;;;;;;;;4978025;28;20206;-72
2021/07/09 03:20:44;;;;;;;17.33;12.40;;;;;;;;;;4976301;28;20183;-71
2021/07/09 03:23:10;;;;;;;18.30;11.90;;;;;;;;;;4972993;28;20215;-71
2021/07/09 03:25:36;;;;;;;18.80;12.60;;;;;;;;;;4974537;28;20577;-71
2021/07/09 03:28:01;;;;;;;19.90;12.80;;;;;;;;;;4973645;28;20249;-72
2021/07/09 03:30:26;;;;;;;21.00;13.23;;;;;;;;;;4957132;28;21747;-72
2021/07/09 03:32:51;;;;;;;18.73;12.73;;;;;;;;;;4959393;28;20258;-72
2021/07/09 03:35:17;;;;;;;18.80;12.47;;;;;;;;;;4955419;28;20183;-71
2021/07/09 03:37:42;;;;;;;23.15;14.32;;;;;;;;;;4978572;28;20207;-72
2021/07/09 03:40:09;;;;;;;21.43;14.17;;;;;;;;;;4974155;28;20183;-71
2021/07/09 03:42:34;;;;;;;23.80;15.47;;;;;;;;;;4976656;28;20203;-71
2021/07/09 03:44:59;;;;;;;30.38;17.63;;;;;;;;;;4973194;28;20721;-71
2021/07/09 03:47:25;;;;;;;30.85;17.80;;;;;;;;;;4975649;28;20188;-71
2021/07/09 03:49:50;;;;;;;31.03;17.13;;;;;;;;;;4973897;28;20267;-71
2021/07/09 03:52:15;;;;;;;28.10;16.05;;;;;;;;;;4954714;28;20203;-71
2021/07/09 03:54:40;;;;;;;26.08;14.93;;;;;;;;;;4973548;28;20216;-71
2021/07/09 03:57:05;;;;;;;27.38;16.27;;;;;;;;;;4973336;28;20199;-73
2021/07/09 03:59:31;;;;;;;26.65;16.17;;;;;;;;;;4975145;28;20192;-74
2021/07/09 04:01:56;;;;;;;23.90;15.02;;;;;;;;;;4974163;28;20263;-72
2021/07/09 04:04:21;;;;;;;26.95;16.60;;;;;;;;;;4973484;28;20651;-72
2021/07/09 04:06:47;;;;;;;30.08;18.48;;;;;;;;;;4973310;28;20179;-72
2021/07/09 04:09:12;;;;;;;25.10;15.77;;;;;;;;;;4958312;28;20668;-72
2021/07/09 04:11:37;;;;;;;28.30;17.13;;;;;;;;;;4972642;28;20230;-72
2021/07/09 04:14:02;;;;;;;32.63;19.40;;;;;;;;;;4970942;28;20215;-72
2021/07/09 04:16:27;;;;;;;32.40;18.55;;;;;;;;;;4973336;28;20610;-72
2021/07/09 04:18:52;;;;;;;32.95;19.10;;;;;;;;;;4974005;28;20721;-72
2021/07/09 04:21:18;;;;;;;33.83;20.30;;;;;;;;;;4958427;28;20598;-72
2021/07/09 04:23:43;;;;;;;31.25;19.55;;;;;;;;;;4977374;28;20538;-72
2021/07/09 04:26:09;;;;;;;29.98;17.70;;;;;;;;;;4955266;28;20207;-72
2021/07/09 04:28:34;;;;;;;31.00;17.98;;;;;;;;;;4958624;28;20229;-72
2021/07/09 04:30:59;;;;;;;31.38;20.25;;;;;;;;;;4972337;28;20184;-72
2021/07/09 04:33:24;;;;;;;34.45;21.05;;;;;;;;;;4977793;28;20213;-72
2021/07/09 04:35:50;;;;;;;30.92;18.58;;;;;;;;;;4972899;28;20337;-72
2021/07/09 04:38:16;;;;;;;27.75;17.27;;;;;;;;;;4973661;28;20730;-72
2021/07/09 04:40:41;;;;;;;30.58;18.67;;;;;;;;;;4973068;28;20184;-72
2021/07/09 04:43:06;;;;;;;26.73;17.53;;;;;;;;;;4973007;28;20219;-73
2021/07/09 04:45:31;;;;;;;26.57;17.53;;;;;;;;;;4973916;28;20919;-72
2021/07/09 04:47:56;;;;;;;26.73;18.10;;;;;;;;;;4971671;28;20413;-72
2021/07/09 04:50:21;;;;;;;23.58;17.13;;;;;;;;;;4952774;28;20256;-72
2021/07/09 04:52:47;;;;;;;26.00;16.90;;;;;;;;;;4972066;28;20223;-72
2021/07/09 04:55:13;;;;;;;23.63;16.65;;;;;;;;;;4953750;28;20198;-72
2021/07/09 04:57:38;;;;;;;21.95;16.23;;;;;;;;;;4973306;28;20195;-72
2021/07/09 05:00:04;;;;;;;20.90;16.03;;;;;;;;;;4975255;28;20353;-72
2021/07/09 05:02:29;;;;;;;21.13;16.00;;;;;;;;;;4972868;28;20571;-72
2021/07/09 05:04:54;;;;;;;21.58;15.15;;;;;;;;;;4970279;28;20180;-72
2021/07/09 05:07:19;;;;;;;19.35;14.30;;;;;;;;;;4976563;28;20172;-72
2021/07/09 05:09:45;;;;;;;23.10;14.93;;;;;;;;;;4969749;28;20270;-72
2021/07/09 05:12:10;;;;;;;22.40;16.23;;;;;;;;;;4971405;28;20278;-72
2021/07/09 05:14:35;;;;;;;20.35;14.05;;;;;;;;;;4973268;28;20802;-72
2021/07/09 05:17:00;;;;;;;19.33;15.83;;;;;;;;;;4953982;28;20191;-72
2021/07/09 05:19:25;;;;;;;19.10;14.52;;;;;;;;;;4958689;28;20456;-74
2021/07/09 05:21:51;;;;;;;20.40;15.77;;;;;;;;;;4971394;28;20185;-72
2021/07/09 05:24:17;;;;;;;18.63;13.55;;;;;;;;;;4972637;28;20204;-73
2021/07/09 05:26:43;;;;;;;18.90;13.90;;;;;;;;;;4960736;28;20197;-72
2021/07/09 05:29:08;;;;;;;19.67;14.27;;;;;;;;;;4971857;28;20194;-72
2021/07/09 05:31:33;;;;;;;17.40;13.20;;;;;;;;;;4972520;28;20782;-72
2021/07/09 05:33:59;;;;;;;14.32;11.73;;;;;;;;;;4970910;28;20255;-72
2021/07/09 05:36:24;;;;;;;16.50;11.95;;;;;;;;;;4972810;28;21956;-72
2021/07/09 05:38:49;;;;;;;16.63;12.60;;;;;;;;;;4977285;28;20183;-73
2021/07/09 05:41:15;;;;;;;13.97;11.27;;;;;;;;;;4969647;28;20202;-72
2021/07/09 05:43:42;;;;;;;14.82;11.85;;;;;;;;;;4972182;28;20473;-72
2021/07/09 05:46:07;;;;;;;15.63;11.70;;;;;;;;;;4972183;28;20180;-72
2021/07/09 05:48:33;;;;;;;14.48;11.00;;;;;;;;;;4974308;28;20212;-72
2021/07/09 05:50:58;;;;;;;13.30;10.65;;;;;;;;;;4970727;28;20266;-72
2021/07/09 05:53:23;;;;;;;16.40;12.02;;;;;;;;;;4971638;28;20234;-72
2021/07/09 05:55:49;;;;;;;16.93;10.93;;;;;;;;;;4971298;28;20206;-72
2021/07/09 05:58:15;;;;;;;14.55;10.52;;;;;;;;;;4970486;28;20433;-72
2021/07/09 06:00:41;;;;;;;17.08;11.30;;;;;;;;;;4970844;28;20840;-72
2021/07/09 06:03:06;;;;;;;17.05;11.52;;;;;;;;;;4956085;28;20607;-72
2021/07/09 06:05:32;;;;;;;17.73;11.37;;;;;;;;;;4972812;28;20188;-72
2021/07/09 06:08:00;;;;;;;15.25;12.15;;;;;;;;;;4975101;28;20440;-73
2021/07/09 06:10:26;;;;;;;12.93;10.52;;;;;;;;;;4976223;28;20188;-72
2021/07/09 06:12:51;;;;;;;11.68;9.63;;;;;;;;;;4970827;28;20222;-72
2021/07/09 06:15:16;;;;;;;15.60;10.63;;;;;;;;;;4962590;28;20276;-74
2021/07/09 06:17:42;;;;;;;12.02;9.73;;;;;;;;;;4957403;28;20194;-72
2021/07/09 06:20:07;;;;;;;12.68;9.98;;;;;;;;;;4971212;28;20198;-72
2021/07/09 06:22:33;;;;;;;14.07;9.82;;;;;;;;;;4971696;28;20226;-72
2021/07/09 06:24:58;;;;;;;14.57;9.65;;;;;;;;;;4970588;28;20181;-72
2021/07/09 06:27:23;;;;;;;11.80;9.97;;;;;;;;;;4974324;28;20184;-72
2021/07/09 06:29:48;;;;;;;12.13;9.90;;;;;;;;;;4970636;28;21011;-72
2021/07/09 06:32:13;;;;;;;17.00;11.40;;;;;;;;;;4973149;28;20436;-72
2021/07/09 06:34:38;;;;;;;14.77;10.45;;;;;;;;;;4971060;28;20437;-72
2021/07/09 06:37:04;;;;;;;14.57;10.63;;;;;;;;;;4972431;28;20562;-72
2021/07/09 06:39:29;;;;;;;13.55;9.88;;;;;;;;;;4971805;28;20445;-72
2021/07/09 06:41:54;;;;;;;14.40;10.55;;;;;;;;;;4972011;28;20188;-72
2021/07/09 06:44:19;;;;;;;12.35;10.95;;;;;;;;;;4969062;28;21281;-72
2021/07/09 06:46:46;;;;;;;11.83;10.57;;;;;;;;;;4970091;28;20195;-72
2021/07/09 06:49:11;;;;;;;12.43;10.15;;;;;;;;;;4969238;28;20433;-72
2021/07/09 06:51:36;;;;;;;15.35;9.82;;;;;;;;;;4971921;28;20811;-72
2021/07/09 06:54:02;;;;;;;15.33;10.33;;;;;;;;;;4970666;28;20215;-72
2021/07/09 06:56:27;;;;;;;13.73;10.85;;;;;;;;;;4971311;28;20461;-72
2021/07/09 06:58:53;;;;;;;14.75;10.02;;;;;;;;;;4973587;28;20191;-72
2021/07/09 07:01:18;;;;;;;12.93;10.20;;;;;;;;;;4969306;28;20197;-72
2021/07/09 07:03:43;;;;;;;14.70;10.93;;;;;;;;;;4970331;28;20548;-72
2021/07/09 07:06:10;;;;;;;12.37;9.93;;;;;;;;;;4971937;28;20449;-72
2021/07/09 07:08:36;;;;;;;15.13;10.82;;;;;;;;;;4970961;28;20413;-72
2021/07/09 07:11:01;;;;;;;12.38;10.32;;;;;;;;;;4971195;28;20594;-72
2021/07/09 07:13:26;;;;;;;11.67;10.37;;;;;;;;;;4975400;28;20211;-70
2021/07/09 07:15:51;;;;;;;15.40;10.80;;;;;;;;;;4971074;28;21025;-71
2021/07/09 07:18:17;;;;;;;13.15;9.77;;;;;;;;;;4970031;28;20188;-71
2021/07/09 07:20:44;;;;;;;13.10;10.82;;;;;;;;;;4973213;28;20191;-71
2021/07/09 07:23:10;;;;;;;15.70;10.45;;;;;;;;;;4970336;28;20650;-70
2021/07/09 07:25:35;;;;;;;12.68;9.43;;;;;;;;;;4973051;28;20176;-71
2021/07/09 07:28:00;;;;;;;14.45;11.00;;;;;;;;;;4972897;28;20207;-71
2021/07/09 07:30:26;;;;;;;13.73;10.32;;;;;;;;;;4969395;28;20567;-70
2021/07/09 07:32:51;;;;;;;16.85;10.38;;;;;;;;;;4971690;28;20223;-71
2021/07/09 07:35:17;;;;;;;15.07;9.98;;;;;;;;;;4970442;28;20275;-70
2021/07/09 07:37:42;;;;;;;11.77;9.73;;;;;;;;;;4972122;28;20196;-70
2021/07/09 07:40:07;;;;;;;14.13;11.13;;;;;;;;;;4968576;28;20498;-71
2021/07/09 07:42:33;;;;;;;10.68;9.57;;;;;;;;;;4974510;28;20464;-70
2021/07/09 07:44:58;;;;;;;12.15;9.75;;;;;;;;;;4969702;28;20541;-71
2021/07/09 07:47:23;;;;;;;10.90;9.30;;;;;;;;;;4959167;28;20191;-71
2021/07/09 07:49:48;;;;;;;13.50;9.30;;;;;;;;;;4968719;28;20433;-70
2021/07/09 07:52:14;;;;;;;12.40;10.20;;;;;;;;;;4955567;28;20253;-72
2021/07/09 07:54:39;;;;;;;10.23;8.40;;;;;;;;;;4968333;28;20427;-70
2021/07/09 07:57:04;;;;;;;10.37;8.53;;;;;;;;;;4970058;28;20445;-71
2021/07/09 07:59:29;;;;;;;9.48;8.48;;;;;;;;;;4958501;28;20441;-71
2021/07/09 08:01:55;;;;;;;13.30;8.95;;;;;;;;;;4971372;28;20270;-71
2021/07/09 08:04:20;;;;;;;10.30;9.13;;;;;;;;;;4973426;28;20199;-71
2021/07/09 08:06:45;;;;;;;10.63;8.10;;;;;;;;;;4973294;28;20689;-70
2021/07/09 08:09:10;;;;;;;11.93;9.55;;;;;;;;;;4974407;28;20850;-71
2021/07/09 08:11:35;;;;;;;11.10;8.73;;;;;;;;;;4973588;28;20187;-70
2021/07/09 08:14:00;;;;;;;13.53;8.33;;;;;;;;;;4976138;28;20986;-70
2021/07/09 08:16:26;;;;;;;10.37;8.43;;;;;;;;;;4973124;28;20433;-70
2021/07/09 08:18:51;;;;;;;10.47;8.60;;;;;;;;;;4974052;28;20465;-71
2021/07/09 08:21:16;;;;;;;11.73;9.20;;;;;;;;;;4976471;28;20532;-70
2021/07/09 08:23:42;;;;;;;11.50;8.57;;;;;;;;;;4973775;28;20265;-72
2021/07/09 08:26:08;;;;;;;12.27;8.40;;;;;;;;;;4974522;28;20457;-70
2021/07/09 08:28:33;;;;;;;10.57;9.53;;;;;;;;;;4975331;28;20184;-70
2021/07/09 08:30:58;;;;;;;10.15;8.65;;;;;;;;;;4959460;28;20476;-73
2021/07/09 08:33:23;;;;;;;10.37;8.67;;;;;;;;;;4975544;28;20212;-71
2021/07/09 08:35:49;;;;;;;11.03;9.27;;;;;;;;;;4972726;28;20437;-71
2021/07/09 08:38:14;;;;;;;14.68;11.40;;;;;;;;;;4978848;28;20445;-70
2021/07/09 08:40:39;;;;;;;15.53;11.67;;;;;;;;;;4978509;28;20184;-71
2021/07/09 08:43:05;;;;;;;14.57;11.75;;;;;;;;;;4967312;28;20843;-72
2021/07/09 08:45:30;;;;;;;17.00;13.32;;;;;;;;;;4975091;28;20180;-71
2021/07/09 08:47:55;;;;;;;14.47;12.43;;;;;;;;;;4973911;28;20186;-71
2021/07/09 08:50:21;;;;;;;15.23;13.00;;;;;;;;;;4972536;28;20851;-70
2021/07/09 08:52:46;;;;;;;14.80;12.20;;;;;;;;;;4972108;28;20231;-71
2021/07/09 08:55:12;;;;;;;13.80;11.00;;;;;;;;;;4974100;28;20215;-70
2021/07/09 08:57:41;;;;;;;15.95;11.52;;;;;;;;;;4980113;28;20188;-70
2021/07/09 09:00:26;;;;;;;12.93;11.57;;;;;;;;;;4975426;28;20294;-71
2021/07/09 09:02:52;;;;;;;12.38;10.85;;;;;;;;;;4974093;28;20231;-70
2021/07/09 09:05:21;;;;;;;11.63;10.45;;;;;;;;;;4973255;28;20179;-70
2021/07/09 09:07:59;;;;;;;11.80;10.57;;;;;;;;;;4971053;28;20187;-71
2021/07/09 09:10:35;;;;;;;10.38;9.32;;;;;;;;;;4973710;28;20653;-71
2021/07/09 09:13:07;;;;;;;10.57;9.48;;;;;;;;;;4974083;28;20588;-70
2021/07/09 09:15:32;;;;;;;10.77;9.07;;;;;;;;;;4971523;28;20179;-69
2021/07/09 09:17:57;;;;;;;11.05;9.85;;;;;;;;;;4971759;28;20186;-70
2021/07/09 09:20:22;;;;;;;11.03;8.23;;;;;;;;;;4973984;28;20274;-69
2021/07/09 09:22:48;;;;;;;10.03;8.47;;;;;;;;;;4973600;28;20468;-70
2021/07/09 09:25:13;;;;;;;10.43;9.00;;;;;;;;;;4972369;28;20441;-69
2021/07/09 09:27:38;;;;;;;8.55;7.75;;;;;;;;;;4974481;28;20563;-70
2021/07/09 09:30:09;;;;;;;9.93;8.60;;;;;;;;;;4971220;28;20191;-68
2021/07/09 09:32:43;;;;;;;12.40;9.50;;;;;;;;;;4976230;28;20200;-69
2021/07/09 09:35:08;;;;;;;11.10;9.73;;;;;;;;;;4972933;28;20692;-68
2021/07/09 09:37:33;;;;;;;11.77;8.48;;;;;;;;;;4975473;28;20183;-70
2021/07/09 09:39:59;;;;;;;9.97;8.77;;;;;;;;;;4971807;28;20677;-70
2021/07/09 09:42:28;;;;;;;14.77;9.97;;;;;;;;;;4974900;28;20208;-69
2021/07/09 09:45:04;;;;;;;11.25;9.43;;;;;;;;;;4972025;28;20175;-69
2021/07/09 09:47:30;;;;;;;11.90;9.90;;;;;;;;;;4971907;28;20200;-72
2021/07/09 09:49:56;;;;;;;9.85;8.25;;;;;;;;;;4970097;28;20245;-70
2021/07/09 09:52:34;;;;;;;9.70;8.38;;;;;;;;;;4972395;28;20640;-70
2021/07/09 09:55:00;;;;;;;9.98;8.68;;;;;;;;;;4975129;28;20181;-70
2021/07/09 09:57:25;;;;;;;10.30;9.05;;;;;;;;;;4973517;28;20180;-71
2021/07/09 09:59:51;;;;;;;9.73;8.30;;;;;;;;;;4972780;28;20619;-71
2021/07/09 10:02:16;;;;;;;13.52;8.40;;;;;;;;;;4971190;28;20565;-70
2021/07/09 10:04:41;;;;;;;9.57;7.63;;;;;;;;;;4970957;28;20185;-69
2021/07/09 10:07:07;;;;;;;8.90;7.27;;;;;;;;;;4972160;28;20179;-70
2021/07/09 10:09:33;;;;;;;9.05;7.18;;;;;;;;;;4971194;28;20489;-71
2021/07/09 10:12:03;;;;;;;9.88;7.38;;;;;;;;;;4973075;28;20262;-69
2021/07/09 10:14:30;;;;;;;10.27;8.10;;;;;;;;;;4973417;28;20683;-70
2021/07/09 10:17:00;;;;;;;10.75;8.20;;;;;;;;;;4971062;28;20226;-69
2021/07/09 10:19:28;;;;;;;7.78;6.80;;;;;;;;;;4973063;28;20290;-69
2021/07/09 10:21:53;;;;;;;9.55;7.07;;;;;;;;;;4972924;28;20638;-70
2021/07/09 10:24:19;;;;;;;6.95;5.95;;;;;;;;;;4970392;28;20219;-70
2021/07/09 10:26:48;;;;;;;7.93;6.53;;;;;;;;;;4972093;28;20734;-71
2021/07/09 10:29:15;;;;;;;6.35;5.40;;;;;;;;;;4974763;28;20250;-70
2021/07/09 10:31:41;;;;;;;7.05;6.32;;;;;;;;;;4970809;28;20654;-71
2021/07/09 10:34:25;;;;;;;8.18;6.13;;;;;;;;;;4975747;28;20823;-68
2021/07/09 10:36:51;;;;;;;10.75;6.55;;;;;;;;;;4956483;28;20668;-68
2021/07/09 10:39:29;;;;;;;11.77;7.32;;;;;;;;;;4973850;28;20211;-70
2021/07/09 10:41:54;;;;;;;7.95;7.18;;;;;;;;;;4972300;28;20180;-69
2021/07/09 10:44:19;;;;;;;9.53;7.80;;;;;;;;;;4970576;28;20221;-71
2021/07/09 10:46:46;;;;;;;9.45;6.80;;;;;;;;;;4971710;28;22533;-71
2021/07/09 10:49:31;;;;;;;8.68;7.63;;;;;;;;;;4971960;28;20663;-71
2021/07/09 10:51:57;;;;;;;7.80;5.80;;;;;;;;;;4972824;28;20219;-71
2021/07/09 10:54:27;;;;;;;7.53;6.30;;;;;;;;;;4973727;28;20348;-71
2021/07/09 10:57:10;;;;;;;8.95;6.75;;;;;;;;;;4976540;28;20179;-70
2021/07/09 10:59:55;;;;;;;12.32;7.03;;;;;;;;;;4974606;28;20637;-71
2021/07/09 11:02:39;;;;;;;7.97;7.00;;;;;;;;;;4976682;28;20298;-71
2021/07/09 11:05:05;;;;;;;6.50;5.90;;;;;;;;;;4971438;28;20184;-70
2021/07/09 11:07:30;;;;;;;5.72;5.20;;;;;;;;;;4974206;28;20271;-71
2021/07/09 11:09:55;;;;;;;7.30;5.37;;;;;;;;;;4964444;28;20657;-71
2021/07/09 11:12:27;;;;;;;6.25;5.10;;;;;;;;;;4959393;28;20450;-71
2021/07/09 11:14:55;;;;;;;6.60;5.47;;;;;;;;;;4976931;28;20321;-70
2021/07/09 11:17:24;;;;;;;5.57;4.97;;;;;;;;;;4971794;28;20175;-71
2021/07/09 11:19:50;;;;;;;6.97;5.50;;;;;;;;;;4972520;28;20658;-71
2021/07/09 11:22:15;;;;;;;5.93;5.30;;;;;;;;;;4970479;28;20250;-71
2021/07/09 11:24:45;;;;;;;7.63;5.38;;;;;;;;;;4961381;28;20175;-72
2021/07/09 11:27:10;;;;;;;7.13;5.97;;;;;;;;;;4970308;28;20223;-70
2021/07/09 11:29:43;;;;;;;6.60;5.78;;;;;;;;;;4971569;28;20626;-71
2021/07/09 11:32:09;;;;;;;6.30;5.68;;;;;;;;;;4972881;28;21871;-71
2021/07/09 11:34:36;;;;;;;6.82;6.20;;;;;;;;;;4970393;28;20212;-71
2021/07/09 11:37:05;;;;;;;6.85;6.00;;;;;;;;;;4975310;28;20859;-71
2021/07/09 11:39:38;;;;;;;6.15;5.32;;;;;;;;;;4976409;28;20188;-72
2021/07/09 11:42:12;;;;;;;7.35;6.38;;;;;;;;;;4973120;28;20184;-71
2021/07/09 11:44:38;;;;;;;6.35;5.72;;;;;;;;;;4973961;28;20183;-71
2021/07/09 11:47:05;;;;;;;6.70;6.00;;;;;;;;;;4961180;28;20176;-70
2021/07/09 11:49:31;;;;;;;6.70;6.10;;;;;;;;;;4976480;28;20175;-70
2021/07/09 11:51:58;;;;;;;5.55;4.90;;;;;;;;;;4977303;28;20271;-71
2021/07/09 11:54:25;;;;;;;8.93;5.32;;;;;;;;;;4964694;28;20400;-71
2021/07/09 11:56:51;;;;;;;8.02;6.10;;;;;;;;;;4977746;28;20175;-71
2021/07/09 11:59:18;;;;;;;8.38;6.25;;;;;;;;;;4973669;28;20196;-71
2021/07/09 12:01:43;;;;;;;7.07;6.38;;;;;;;;;;4974484;28;20690;-71
2021/07/09 12:04:09;;;;;;;6.18;5.35;;;;;;;;;;4974022;28;20212;-71
2021/07/09 12:06:34;;;;;;;7.00;6.30;;;;;;;;;;4973823;28;20183;-71
2021/07/09 12:08:59;;;;;;;5.43;4.93;;;;;;;;;;4975104;28;20179;-71
2021/07/09 12:11:24;;;;;;;6.70;4.73;;;;;;;;;;4973127;28;20436;-70
2021/07/09 12:14:06;;;;;;;5.80;5.20;;;;;;;;;;4976419;28;20528;-70
2021/07/09 12:16:32;;;;;;;10.20;6.00;;;;;;;;;;4976973;28;20187;-70
2021/07/09 12:18:57;;;;;;;8.43;5.32;;;;;;;;;;4971144;28;20191;-71
2021/07/09 12:21:24;;;;;;;6.80;5.60;;;;;;;;;;4973899;28;20334;-71
2021/07/09 12:23:59;;;;;;;6.32;5.05;;;;;;;;;;4954595;28;20602;-70
2021/07/09 12:26:25;;;;;;;8.98;6.20;;;;;;;;;;4973428;28;20281;-70
2021/07/09 12:28:50;;;;;;;6.53;5.67;;;;;;;;;;4975671;28;20185;-70
2021/07/09 12:31:15;;;;;;;6.82;6.13;;;;;;;;;;4974224;28;20440;-71
2021/07/09 12:33:49;;;;;;;7.73;6.43;;;;;;;;;;4973643;28;20563;-71
2021/07/09 12:36:15;;;;;;;6.75;6.00;;;;;;;;;;4970881;28;20433;-71
2021/07/09 12:38:41;;;;;;;8.87;7.57;;;;;;;;;;4974325;28;20193;-70
2021/07/09 12:41:07;;;;;;;9.23;7.72;;;;;;;;;;4978142;28;20989;-71
2021/07/09 12:43:44;;;;;;;9.55;7.47;;;;;;;;;;4975794;28;20263;-71
2021/07/09 12:46:11;;;;;;;8.88;7.65;;;;;;;;;;4972869;28;20171;-71
2021/07/09 12:48:38;;;;;;;8.95;7.65;;;;;;;;;;4972811;28;20184;-71
2021/07/09 12:51:15;;;;;;;8.30;7.30;;;;;;;;;;4971779;28;20183;-71
2021/07/09 12:53:48;;;;;;;13.13;9.93;;;;;;;;;;4976876;28;20203;-70
2021/07/09 12:56:17;;;;;;;11.40;10.20;;;;;;;;;;4969956;28;20231;-70
2021/07/09 12:58:42;;;;;;;9.98;9.00;;;;;;;;;;4975464;28;20183;-70
2021/07/09 13:01:08;;;;;;;10.93;9.83;;;;;;;;;;4972758;28;20179;-69
2021/07/09 13:03:34;;;;;;;11.35;10.25;;;;;;;;;;4971186;28;20567;-70
2021/07/09 13:05:59;;;;;;;13.60;11.65;;;;;;;;;;4975065;28;20190;-70
2021/07/09 13:08:24;;;;;;;19.20;12.18;;;;;;;;;;4974923;28;20771;-70
2021/07/09 13:11:03;;;;;;;14.45;12.95;;;;;;;;;;4972762;28;20743;-72
2021/07/09 13:13:33;;;;;;;14.32;12.80;;;;;;;;;;4994515;23;20377;-70
2021/07/09 13:15:59;;;;;;;16.10;13.80;;;;;;;;;;4989024;28;20556;-70
2021/07/09 13:18:25;;;;;;;15.55;13.95;;;;;;;;;;4990842;28;20293;-70
2021/07/09 13:20:56;;;;;;;16.55;14.23;;;;;;;;;;4988203;28;20187;-70
2021/07/09 13:23:21;;;;;;;15.18;13.68;;;;;;;;;;4987039;28;20218;-70
2021/07/09 13:25:59;;;;;;;18.13;14.33;;;;;;;;;;4989340;28;20187;-70
2021/07/09 13:28:24;;;;;;;17.10;14.23;;;;;;;;;;4990834;28;20439;-70
2021/07/09 13:30:49;;;;;;;16.65;14.88;;;;;;;;;;4990059;28;20180;-71
2021/07/09 13:33:15;;;;;;;13.90;12.60;;;;;;;;;;5001994;28;20215;-70
2021/07/09 13:35:43;;;;;;;13.13;11.88;;;;;;;;;;4990165;28;20435;-71
2021/07/09 13:38:11;;;;;;;13.70;12.35;;;;;;;;;;4996769;28;20191;-70
2021/07/09 13:40:36;;;;;;;13.70;12.27;;;;;;;;;;4988511;28;20563;-70
2021/07/09 13:43:02;;;;;;;13.97;12.57;;;;;;;;;;4992424;28;20732;-70
2021/07/09 13:45:27;;;;;;;16.20;12.15;;;;;;;;;;4988056;28;20289;-70
2021/07/09 13:47:52;;;;;;;14.27;12.87;;;;;;;;;;4990895;28;20261;-70
2021/07/09 13:50:17;;;;;;;12.90;11.47;;;;;;;;;;4995044;28;20186;-71
2021/07/09 13:52:43;;;;;;;12.60;11.40;;;;;;;;;;4990019;28;20429;-71
2021/07/09 13:55:08;;;;;;;13.45;12.05;;;;;;;;;;4987090;28;20175;-70
2021/07/09 13:57:34;;;;;;;12.90;11.60;;;;;;;;;;4991054;28;20215;-70
2021/07/09 14:00:00;;;;;;;13.80;12.30;;;;;;;;;;4989222;28;20186;-71
2021/07/09 14:02:25;;;;;;;15.48;12.55;;;;;;;;;;4993048;28;20464;-71
2021/07/09 14:04:50;;;;;;;16.50;13.23;;;;;;;;;;4992767;28;20696;-72
2021/07/09 14:07:16;;;;;;;14.07;12.77;;;;;;;;;;4988353;28;21236;-71
2021/07/09 14:09:41;;;;;;;12.52;11.32;;;;;;;;;;4987336;28;20944;-72
2021/07/09 14:12:08;;;;;;;13.10;11.70;;;;;;;;;;4987481;28;20175;-71
2021/07/09 14:14:33;;;;;;;13.10;11.77;;;;;;;;;;4986560;28;20493;-71
2021/07/09 14:16:59;;;;;;;11.35;10.25;;;;;;;;;;4988680;28;20278;-68
2021/07/09 14:19:24;;;;;;;11.95;10.43;;;;;;;;;;4987351;28;20186;-72